Skip to main content.
Our real time weather data display below is updated continuously via our 24/7 live data feed.
 TIME   TEMPERATURE   WINDSPEED   DIRECTION   HUMIDITY   BAROMETER   RAINFALL 
10:50 17.0°C (62.6°F) 42.6 kmh (26.5 mph) NW 63% 1017.9hPa (30.06 inHg) 0.0mm (0.00 in.)
9:50 16.0°C (60.8 °F) 42.6 kmh (26.5 mph) NNW 67% 1017.9hPa (30.06 inHg) 0.0mm (0.00 in.)
8:37 16.0°C (60.8 °F) 38.9 kmh (24.2 mph) N 63% 1016.9hPa (30.03 inHg) 0.0mm (0.00 in.)
7:37 16.0°C (60.8 °F) 40.7 kmh (25.3 mph) N 63% 1016.9hPa (30.03 inHg) 0.0mm (0.00 in.)
6:37 17.0°C (62.6 °F) 37.0 kmh (23.0 mph) N 72% 1016.9hPa (30.03 inHg) 0.0mm (0.00 in.)
5:37 16.0°C (60.8 °F) 38.9 kmh (24.2 mph) N 77% 1015.9hPa (30.00 inHg) 0.0mm (0.00 in.)
4:37 16.0°C (60.8 °F) 38.9 kmh (24.2 mph) N 77% 1016.9hPa (30.03 inHg) 0.0mm (0.00 in.)
3:37 17.0°C (62.6 °F) 33.3 kmh (20.7 mph) N 72% 1017.9hPa (30.06 inHg) 0.0mm (0.00 in.)
2:37 17.0°C (62.6 °F) 48.2 kmh (29.9 mph) N 67% 1017.9hPa (30.06 inHg) 0.0mm (0.00 in.)
1:37 16.0°C (60.8 °F) 35.2 kmh (21.9 mph) N 77% 1019.0hPa (30.09 inHg) 0.0mm (0.00 in.)
12:37 17.0°C (62.6 °F) 37.0 kmh (23.0 mph) N 72% 1019.0hPa (30.09 inHg) 0.0mm (0.00 in.)
11:37 17.0°C (62.6 °F) 46.3 kmh (28.8 mph) N 72% 1020.0hPa (30.12 inHg) 0.0mm (0.00 in.)
10:37 17.0°C (62.6 °F) 37.0 kmh (23.0 mph) N 72% 1020.0hPa (30.12 inHg) 0.0mm (0.00 in.)
9:37 17.0°C (62.6 °F) 35.2 kmh (21.9 mph) N 72% 1020.0hPa (30.12 inHg) 0.0mm (0.00 in.)
8:37 16.0°C (60.8 °F) 37.0 kmh (23.0 mph) N 72% 1020.0hPa (30.12 inHg) 0.0mm (0.00 in.)
7:37 16.0°C (60.8 °F) 37.0 kmh (23.0 mph) N 72% 1019.0hPa (30.09 inHg) 0.0mm (0.00 in.)
6:37 16.0°C (60.8 °F) 35.2 kmh (21.9 mph) N 77% 1019.0hPa (30.09 inHg) 0.0mm (0.00 in.)
5:37 16.0°C (60.8 °F) 29.6 kmh (18.4 mph) N 72% 1019.0hPa (30.09 inHg) 0.0mm (0.00 in.)
4:37 17.0°C (62.6 °F) 31.5 kmh (19.6 mph) N 72% 1019.0hPa (30.09 inHg) 0.0mm (0.00 in.)
3:37 17.0°C (62.6 °F) 33.3 kmh (20.7 mph) N 67% 1019.0hPa (30.09 inHg) 0.0mm (0.00 in.)
2:37 17.0°C (62.6 °F) 37.0 kmh (23.0 mph) N 67% 1019.0hPa (30.09 inHg) 0.0mm (0.00 in.)
1:37 17.0°C (62.6 °F) 38.9 kmh (24.2 mph) N 63% 1020.0hPa (30.12 inHg) 0.0mm (0.00 in.)
12:37 17.0°C (62.6 °F) 31.5 kmh (19.6 mph) N 59% 1021.0hPa (30.15 inHg) 0.0mm (0.00 in.)
11:37 17.0°C (62.6 °F) 29.6 kmh (18.4 mph) N 55% 1021.0hPa (30.15 inHg) 0.0mm (0.00 in.)